Terminal Aerodrome Forecast
Issued by NWS Cleveland, OH

Home | Current Version | Previous Version | Text Only | Print | Product List | Glossary On
Versions: 1 2 3 4 5 6 7 8 9 10 11 12 13 14 15 16 17 18 19 20 21 22 23 24 25
000
FTUS41 KCLE 130200 AAA
TAFCLE
TAF AMD
KCLE 130254Z 1303/1406 19008KT P6SM SCT010 OVC250
     FM130800 20012KT P6SM VCTS SCT025 OVC050CB
      TEMPO 1310/1313 VRB15G35KT 3SM TSRA BR SCT015 OVC025CB
     FM131300 22012G20KT P6SM VCTS BKN035 OVC100CB
     FM140300 23008KT P6SM OVC100=

USA.gov is the U.S. government's official web portal to all federal, state and local government web resources and services.